createdAt,value
2022-12-23T00:00:40.644Z,10.60
2022-12-23T00:03:08.825Z,10.60
2022-12-23T00:05:38.205Z,10.60
2022-12-23T00:08:06.730Z,10.70
2022-12-23T00:10:35.005Z,10.60
2022-12-23T00:13:20.353Z,10.70
2022-12-23T00:15:47.222Z,10.60
2022-12-23T00:18:14.174Z,10.60
2022-12-23T00:20:41.084Z,10.60
2022-12-23T00:23:08.002Z,10.60
2022-12-23T00:25:41.118Z,10.60
2022-12-23T00:28:11.832Z,10.70
2022-12-23T00:30:49.040Z,10.60
2022-12-23T00:33:19.092Z,10.70
2022-12-23T00:35:46.670Z,10.70
2022-12-23T00:38:13.941Z,10.70
2022-12-23T00:40:59.464Z,10.70
2022-12-23T00:43:26.479Z,10.70
2022-12-23T00:45:53.502Z,10.70
2022-12-23T00:48:39.184Z,10.70
2022-12-23T00:51:06.873Z,10.80
2022-12-23T00:53:33.701Z,10.80
2022-12-23T00:56:00.633Z,10.70
2022-12-23T00:58:27.599Z,10.70
2022-12-23T01:01:13.631Z,10.70
2022-12-23T01:03:59.060Z,10.80
2022-12-23T01:06:27.557Z,10.70
2022-12-23T01:08:54.488Z,10.70
2022-12-23T01:11:22.153Z,10.70
2022-12-23T01:13:48.989Z,10.70
2022-12-23T01:16:17.876Z,10.70
2022-12-23T01:18:45.447Z,10.80
2022-12-23T01:21:12.703Z,10.70
2022-12-23T01:23:39.654Z,10.80
2022-12-23T01:26:08.027Z,10.80
2022-12-23T01:28:35.774Z,10.80
2022-12-23T01:31:04.753Z,10.80
2022-12-23T01:33:32.810Z,10.80
2022-12-23T01:36:06.696Z,10.80
2022-12-23T01:38:34.880Z,10.80
2022-12-23T01:41:01.744Z,10.80
2022-12-23T01:44:24.233Z,10.80
2022-12-23T01:46:51.392Z,10.70
2022-12-23T01:49:18.236Z,10.70
2022-12-23T01:51:46.196Z,10.70
2022-12-23T01:54:13.004Z,10.70
2022-12-23T01:56:40.817Z,10.60
2022-12-23T01:59:32.817Z,10.70
2022-12-23T02:02:18.852Z,10.70
2022-12-23T02:04:47.528Z,10.70
2022-12-23T02:07:33.062Z,10.70
2022-12-23T02:09:59.989Z,10.70
2022-12-23T02:12:52.939Z,10.70
2022-12-23T02:18:56.245Z,10.80
2022-12-23T02:21:39.268Z,10.80
2022-12-23T02:24:39.572Z,10.80
2022-12-23T02:27:22.658Z,10.70
2022-12-23T02:30:18.579Z,10.80
2022-12-23T02:32:49.109Z,10.70
2022-12-23T02:35:30.577Z,10.80
2022-12-23T02:38:13.633Z,10.80
2022-12-23T02:40:51.902Z,10.80
2022-12-23T02:43:49.755Z,10.80
2022-12-23T02:46:30.749Z,10.80
2022-12-23T02:49:07.926Z,10.80
2022-12-23T02:51:40.634Z,10.80
2022-12-23T02:54:11.104Z,10.80
2022-12-23T02:56:42.598Z,10.80
2022-12-23T02:59:21.656Z,10.80
2022-12-23T03:01:50.825Z,10.70
2022-12-23T03:04:18.196Z,10.70
2022-12-23T03:06:49.889Z,10.70
2022-12-23T03:09:41.937Z,10.70
2022-12-23T03:12:28.285Z,10.70
2022-12-23T03:15:08.142Z,10.70
2022-12-23T03:17:47.153Z,10.60
2022-12-23T03:20:25.629Z,10.60
2022-12-23T03:23:12.211Z,10.60
2022-12-23T03:25:47.992Z,10.60
2022-12-23T03:28:24.572Z,10.60
2022-12-23T03:30:56.281Z,10.60
2022-12-23T03:33:28.574Z,10.50
2022-12-23T03:36:10.066Z,10.50
2022-12-23T03:38:39.447Z,10.50
2022-12-23T03:41:12.234Z,10.50
2022-12-23T03:43:51.505Z,10.50
2022-12-23T03:46:26.585Z,10.50
2022-12-23T03:48:57.983Z,10.50
2022-12-23T03:51:45.602Z,10.50
2022-12-23T03:54:21.272Z,10.50
2022-12-23T03:57:01.796Z,10.50
2022-12-23T03:59:42.615Z,10.50
2022-12-23T04:02:15.933Z,10.50
2022-12-23T04:05:13.006Z,10.50
2022-12-23T04:07:47.519Z,10.50
2022-12-23T04:10:15.499Z,10.50
2022-12-23T04:12:42.624Z,10.50
2022-12-23T04:15:13.114Z,10.40
2022-12-23T04:17:40.675Z,10.50
2022-12-23T04:20:08.321Z,10.40
2022-12-23T04:22:35.353Z,10.50
2022-12-23T04:25:02.270Z,10.50
2022-12-23T04:27:29.998Z,10.50
2022-12-23T04:29:56.927Z,10.50
2022-12-23T04:32:24.667Z,10.50
2022-12-23T04:34:51.525Z,10.50
2022-12-23T04:37:19.101Z,10.50
2022-12-23T04:39:46.010Z,10.50
2022-12-23T04:42:13.040Z,10.50
2022-12-23T04:44:40.074Z,10.50
2022-12-23T04:47:07.160Z,10.50
2022-12-23T04:49:34.244Z,10.50
2022-12-23T04:52:01.335Z,10.40
2022-12-23T04:54:28.195Z,10.40
2022-12-23T04:56:55.351Z,10.50
2022-12-23T04:59:22.383Z,10.50
2022-12-23T05:01:50.584Z,10.50
2022-12-23T05:04:18.985Z,10.50
2022-12-23T05:06:46.036Z,10.40
2022-12-23T05:09:13.096Z,10.40
2022-12-23T05:11:42.309Z,10.50
2022-12-23T05:14:13.794Z,10.50
2022-12-23T05:16:42.017Z,10.50
2022-12-23T05:19:10.212Z,10.50
2022-12-23T05:21:37.401Z,10.40
2022-12-23T05:24:04.559Z,10.40
2022-12-23T05:26:32.141Z,10.40
2022-12-23T05:28:59.175Z,10.50
2022-12-23T05:31:27.903Z,10.40
2022-12-23T05:33:54.869Z,10.40
2022-12-23T05:36:22.107Z,10.40
2022-12-23T05:38:49.040Z,10.40
2022-12-23T05:41:16.907Z,10.30
2022-12-23T05:43:49.383Z,10.30
2022-12-23T05:46:35.715Z,10.30
2022-12-23T05:49:05.763Z,10.40
2022-12-23T05:51:33.384Z,10.40
2022-12-23T05:54:00.527Z,10.20
2022-12-23T05:56:27.582Z,10.40
2022-12-23T05:58:54.609Z,10.40
2022-12-23T06:01:21.735Z,10.40
2022-12-23T06:03:49.072Z,10.40
2022-12-23T06:06:23.252Z,10.40
2022-12-23T06:08:54.482Z,10.40
2022-12-23T06:11:27.593Z,10.40
2022-12-23T06:13:54.951Z,10.50
2022-12-23T06:16:23.366Z,10.50
2022-12-23T06:18:55.424Z,10.50
2022-12-23T06:21:22.812Z,10.50
2022-12-23T06:23:49.867Z,10.10
2022-12-23T06:26:17.475Z,10.50
2022-12-23T06:28:44.956Z,10.60
2022-12-23T06:31:25.985Z,10.50
2022-12-23T06:33:55.592Z,10.50
2022-12-23T06:36:23.195Z,10.50
2022-12-23T06:38:50.436Z,10.50
2022-12-23T06:41:17.925Z,10.50
2022-12-23T06:43:47.726Z,10.50
2022-12-23T06:46:17.167Z,10.50
2022-12-23T06:48:46.805Z,10.50
2022-12-23T06:51:14.698Z,10.60
2022-12-23T06:53:41.890Z,10.60
2022-12-23T06:56:14.201Z,10.60
2022-12-23T06:58:41.396Z,10.60
2022-12-23T07:01:14.410Z,10.60
2022-12-23T07:03:54.143Z,10.60
2022-12-23T07:06:32.787Z,10.60
2022-12-23T07:12:36.623Z,10.60
2022-12-23T07:15:22.480Z,10.60
2022-12-23T07:20:48.483Z,10.60
2022-12-23T07:23:21.151Z,10.60
2022-12-23T07:26:03.536Z,10.60
2022-12-23T07:28:40.069Z,10.60
2022-12-23T07:31:43.971Z,10.70
2022-12-23T07:34:36.523Z,10.60
2022-12-23T07:37:17.145Z,10.60
2022-12-23T07:39:47.531Z,10.60
2022-12-23T07:45:20.753Z,10.60
2022-12-23T07:48:08.973Z,10.60
2022-12-23T07:51:05.672Z,10.60
2022-12-23T07:53:40.490Z,10.60
2022-12-23T07:56:35.548Z,10.60
2022-12-23T07:59:10.135Z,10.60
2022-12-23T08:02:50.142Z,10.50
2022-12-23T08:11:15.863Z,10.60
2022-12-23T08:14:16.926Z,10.50
2022-12-23T08:16:53.766Z,10.60
2022-12-23T08:29:22.655Z,10.70
2022-12-23T08:31:54.139Z,10.70
2022-12-23T08:34:21.017Z,10.70
2022-12-23T08:36:47.883Z,10.70
2022-12-23T08:39:15.767Z,10.70
2022-12-23T08:41:45.971Z,10.80
2022-12-23T08:44:15.803Z,10.80
2022-12-23T08:46:43.063Z,10.80
2022-12-23T08:49:10.401Z,10.90
2022-12-23T08:51:37.925Z,10.90
2022-12-23T08:54:05.731Z,10.90
2022-12-23T08:56:35.733Z,10.90
2022-12-23T08:59:04.072Z,11.00
2022-12-23T09:01:34.010Z,11.00
2022-12-23T09:04:06.133Z,11.00
2022-12-23T09:06:43.228Z,11.00
2022-12-23T09:09:12.868Z,11.00
2022-12-23T09:11:39.744Z,11.10
2022-12-23T09:14:08.656Z,11.10
2022-12-23T09:16:35.920Z,11.10
2022-12-23T09:19:03.674Z,11.10
2022-12-23T09:21:30.821Z,11.10
2022-12-23T09:23:57.696Z,11.10
2022-12-23T09:26:27.577Z,11.10
2022-12-23T09:28:55.209Z,11.20
2022-12-23T09:31:23.592Z,11.20
2022-12-23T09:33:52.987Z,11.20
2022-12-23T09:36:20.680Z,11.20
2022-12-23T09:38:55.305Z,11.30
2022-12-23T09:41:39.650Z,11.30
2022-12-23T09:44:27.288Z,11.30
2022-12-23T09:47:00.271Z,11.40
2022-12-23T09:49:28.132Z,11.40
2022-12-23T09:52:00.267Z,11.40
2022-12-23T09:54:33.097Z,11.50
2022-12-23T09:57:17.386Z,11.60
2022-12-23T10:00:06.954Z,11.70
2022-12-23T10:02:45.052Z,11.70
2022-12-23T10:05:30.858Z,11.80
2022-12-23T10:08:07.660Z,11.80
2022-12-23T10:11:27.245Z,11.90
2022-12-23T10:14:18.173Z,12.00
2022-12-23T10:16:49.510Z,12.00
2022-12-23T10:19:45.818Z,12.10
2022-12-23T10:22:31.997Z,12.20
2022-12-23T10:25:03.204Z,12.20
2022-12-23T10:27:34.745Z,12.20
2022-12-23T10:33:24.298Z,12.30
2022-12-23T10:36:05.054Z,12.40
2022-12-23T10:39:02.743Z,12.30
2022-12-23T10:41:44.697Z,12.40
2022-12-23T10:44:49.249Z,12.40
2022-12-23T10:47:26.614Z,12.40
2022-12-23T10:50:09.584Z,12.40
2022-12-23T10:52:42.449Z,12.40
2022-12-23T10:55:24.302Z,12.50
2022-12-23T10:58:13.126Z,12.40
2022-12-23T11:00:45.514Z,12.50
2022-12-23T11:03:18.741Z,12.50
2022-12-23T11:05:50.191Z,12.50
2022-12-23T11:08:20.087Z,12.50
2022-12-23T11:10:47.887Z,12.60
2022-12-23T11:13:36.853Z,12.60
2022-12-23T11:16:28.426Z,12.70
2022-12-23T11:19:02.626Z,12.80
2022-12-23T11:21:32.761Z,12.90
2022-12-23T11:24:19.010Z,13.00
2022-12-23T11:26:49.707Z,13.00
2022-12-23T11:29:29.637Z,13.10
2022-12-23T11:31:56.673Z,13.10
2022-12-23T11:34:26.160Z,13.10
2022-12-23T11:37:06.934Z,13.20
2022-12-23T11:39:36.967Z,13.20
2022-12-23T11:42:17.243Z,13.30
2022-12-23T11:44:49.108Z,13.20
2022-12-23T11:47:29.232Z,13.40
2022-12-23T11:49:59.936Z,13.40
2022-12-23T11:52:28.860Z,13.40
2022-12-23T11:54:58.529Z,13.40
2022-12-23T11:57:45.661Z,13.40
2022-12-23T12:00:40.445Z,13.40
2022-12-23T12:03:18.008Z,13.40
2022-12-23T12:06:13.836Z,13.40
2022-12-23T12:08:42.066Z,13.40
2022-12-23T12:11:15.601Z,13.40
2022-12-23T12:13:51.724Z,13.50
2022-12-23T12:16:36.324Z,13.50
2022-12-23T12:19:15.264Z,13.50
2022-12-23T12:21:44.716Z,13.50
2022-12-23T12:24:28.382Z,13.40
2022-12-23T12:27:01.577Z,13.50
2022-12-23T12:29:40.403Z,13.50
2022-12-23T12:32:23.058Z,13.40
2022-12-23T12:34:50.341Z,13.40
2022-12-23T12:37:22.993Z,13.30
2022-12-23T12:40:00.663Z,13.30
2022-12-23T12:42:42.378Z,13.30
2022-12-23T12:45:25.361Z,13.40
2022-12-23T12:48:35.043Z,13.40
2022-12-23T12:51:29.971Z,13.30
2022-12-23T12:54:01.141Z,13.20
2022-12-23T12:56:53.743Z,13.20
2022-12-23T12:59:24.825Z,13.20
2022-12-23T13:02:12.086Z,13.20
2022-12-23T13:05:02.178Z,13.20
2022-12-23T13:07:39.380Z,13.30
2022-12-23T13:10:24.955Z,13.30
2022-12-23T13:13:13.451Z,13.20
2022-12-23T13:15:55.225Z,13.20
2022-12-23T13:18:46.406Z,13.20
2022-12-23T13:21:28.385Z,13.30
2022-12-23T13:24:03.811Z,13.20
2022-12-23T13:26:52.031Z,13.20
2022-12-23T13:29:37.924Z,13.20
2022-12-23T13:32:17.787Z,13.20
2022-12-23T13:35:00.980Z,13.10
2022-12-23T13:38:09.587Z,13.10
2022-12-23T13:41:01.303Z,13.10
2022-12-23T13:43:40.289Z,13.00
2022-12-23T13:46:26.907Z,13.00
2022-12-23T13:49:07.580Z,13.00
2022-12-23T13:51:43.772Z,12.90
2022-12-23T13:54:33.903Z,12.90
2022-12-23T13:57:08.550Z,12.90
2022-12-23T13:59:41.060Z,12.80
2022-12-23T14:02:36.149Z,12.80
2022-12-23T14:05:09.272Z,12.80
2022-12-23T14:07:38.681Z,12.80
2022-12-23T14:10:21.547Z,12.80
2022-12-23T14:12:50.269Z,12.80
2022-12-23T14:15:32.325Z,12.80
2022-12-23T14:18:30.861Z,12.70
2022-12-23T14:21:29.501Z,12.70
2022-12-23T14:24:34.065Z,12.60
2022-12-23T14:27:38.845Z,12.60
2022-12-23T14:30:32.744Z,12.70
2022-12-23T14:33:02.329Z,12.70
2022-12-23T14:35:40.104Z,12.70
2022-12-23T14:38:21.505Z,12.70
2022-12-23T14:40:53.762Z,12.70
2022-12-23T14:43:26.368Z,12.70
2022-12-23T14:45:54.891Z,12.60
2022-12-23T14:48:34.126Z,12.70
2022-12-23T14:51:29.015Z,12.60
2022-12-23T14:53:59.565Z,12.60
2022-12-23T14:56:43.765Z,12.50
2022-12-23T14:59:32.585Z,12.50
2022-12-23T15:02:04.378Z,12.40
2022-12-23T15:04:53.034Z,12.40
2022-12-23T15:07:38.540Z,12.40
2022-12-23T15:10:17.731Z,12.40
2022-12-23T15:12:49.388Z,12.40
2022-12-23T15:15:20.968Z,12.40
2022-12-23T15:17:49.303Z,12.40
2022-12-23T15:20:19.071Z,12.40
2022-12-23T15:22:47.553Z,12.40
2022-12-23T15:25:23.310Z,12.40
2022-12-23T15:28:00.810Z,12.40
2022-12-23T15:30:34.167Z,12.40
2022-12-23T15:33:34.787Z,12.30
2022-12-23T15:35:56.041Z,12.40
2022-12-23T15:38:29.446Z,12.30
2022-12-23T15:40:59.511Z,12.30
2022-12-23T15:43:26.424Z,12.20
2022-12-23T15:46:04.541Z,12.30
2022-12-23T15:48:32.812Z,12.40
2022-12-23T15:51:05.935Z,12.30
2022-12-23T15:53:36.667Z,12.30
2022-12-23T15:56:09.980Z,12.30
2022-12-23T15:58:41.754Z,12.30
2022-12-23T16:01:15.331Z,12.30
2022-12-23T16:03:48.934Z,12.30
2022-12-23T16:06:34.593Z,12.30
2022-12-23T16:09:23.088Z,12.10
2022-12-23T16:11:57.050Z,12.10
2022-12-23T16:14:34.953Z,12.10
2022-12-23T16:17:08.713Z,12.10
2022-12-23T16:19:49.720Z,12.20
2022-12-23T16:22:37.349Z,12.20
2022-12-23T16:28:32.228Z,12.30
2022-12-23T16:31:00.464Z,12.30
2022-12-23T16:33:45.578Z,12.30
2022-12-23T16:36:21.374Z,12.30
2022-12-23T16:39:12.074Z,12.20
2022-12-23T16:41:40.450Z,12.20
2022-12-23T16:44:07.402Z,12.30
2022-12-23T16:46:38.677Z,12.20
2022-12-23T16:49:11.012Z,12.20
2022-12-23T16:51:48.930Z,12.30
2022-12-23T16:54:27.501Z,12.20
2022-12-23T16:56:58.603Z,12.20
2022-12-23T16:59:30.630Z,12.20
2022-12-23T17:02:03.476Z,12.30
2022-12-23T17:04:33.581Z,12.20
2022-12-23T17:07:02.776Z,12.10
2022-12-23T17:09:32.022Z,12.20
2022-12-23T17:12:00.451Z,12.20
2022-12-23T17:14:28.349Z,11.90
2022-12-23T17:16:58.813Z,12.30
2022-12-23T17:19:29.671Z,12.30
2022-12-23T17:22:01.600Z,12.40
2022-12-23T17:24:32.509Z,12.30
2022-12-23T17:27:01.889Z,12.40
2022-12-23T17:29:32.038Z,12.40
2022-12-23T17:32:02.127Z,12.40
2022-12-23T17:34:48.185Z,12.40
2022-12-23T17:37:19.361Z,12.50
2022-12-23T17:39:47.681Z,12.50
2022-12-23T17:42:25.533Z,12.50
2022-12-23T17:44:53.274Z,12.50
2022-12-23T17:47:22.608Z,12.50
2022-12-23T17:49:50.596Z,12.50
2022-12-23T17:52:28.150Z,12.40
2022-12-23T17:54:56.789Z,12.40
2022-12-23T17:57:28.671Z,12.40
2022-12-23T18:00:01.781Z,12.50
2022-12-23T18:02:40.115Z,12.40
2022-12-23T18:05:26.298Z,12.50
2022-12-23T18:07:54.449Z,12.50
2022-12-23T18:10:44.654Z,12.50
2022-12-23T18:13:18.401Z,12.50
2022-12-23T18:15:48.703Z,12.50
2022-12-23T18:18:34.248Z,12.50
2022-12-23T18:21:11.747Z,12.50
2022-12-23T18:23:38.917Z,12.50
2022-12-23T18:26:10.916Z,12.60
2022-12-23T18:28:40.668Z,12.50
2022-12-23T18:31:15.516Z,12.50
2022-12-23T18:33:43.137Z,12.50
2022-12-23T18:36:31.701Z,12.50
2022-12-23T18:39:02.464Z,12.50
2022-12-23T18:41:30.205Z,12.40
2022-12-23T18:43:57.588Z,12.40
2022-12-23T18:46:24.761Z,12.70
2022-12-23T18:48:54.914Z,12.40
2022-12-23T18:51:22.788Z,12.40
2022-12-23T18:53:56.200Z,12.30
2022-12-23T18:56:24.107Z,12.30
2022-12-23T18:58:56.981Z,12.30
2022-12-23T19:01:25.236Z,12.30
2022-12-23T19:03:52.265Z,12.30
2022-12-23T19:06:19.215Z,12.30
2022-12-23T19:08:47.652Z,12.30
2022-12-23T19:11:21.571Z,12.30
2022-12-23T19:13:54.913Z,12.20
2022-12-23T19:16:23.023Z,12.30
2022-12-23T19:18:50.380Z,12.20
2022-12-23T19:21:22.800Z,12.20
2022-12-23T19:23:53.411Z,12.30
2022-12-23T19:26:26.298Z,12.30
2022-12-23T19:28:54.710Z,12.30
2022-12-23T19:31:23.150Z,12.30
2022-12-23T19:33:54.969Z,12.30
2022-12-23T19:36:48.234Z,12.30
2022-12-23T19:39:21.925Z,12.30
2022-12-23T19:41:58.277Z,12.60
2022-12-23T19:44:33.886Z,12.40
2022-12-23T19:47:03.396Z,12.30
2022-12-23T19:49:34.546Z,12.00
2022-12-23T19:52:07.882Z,12.40
2022-12-23T19:54:37.801Z,12.40
2022-12-23T19:57:08.061Z,12.20
2022-12-23T19:59:38.840Z,12.40
2022-12-23T20:02:06.111Z,12.40
2022-12-23T20:04:33.371Z,12.40
2022-12-23T20:07:00.413Z,12.40
2022-12-23T20:09:33.618Z,12.40
2022-12-23T20:12:00.906Z,12.40
2022-12-23T20:14:32.337Z,12.40
2022-12-23T20:17:02.524Z,12.40
2022-12-23T20:19:45.605Z,12.40
2022-12-23T20:22:24.076Z,12.40
2022-12-23T20:24:52.076Z,12.40
2022-12-23T20:27:27.695Z,12.50
2022-12-23T20:29:57.992Z,12.50
2022-12-23T20:32:28.535Z,12.40
2022-12-23T20:35:23.434Z,12.50
2022-12-23T20:37:50.791Z,12.40
2022-12-23T20:40:19.228Z,12.40
2022-12-23T20:42:47.968Z,12.40
2022-12-23T20:45:14.904Z,12.40
2022-12-23T20:47:41.824Z,12.40
2022-12-23T20:50:08.980Z,12.40
2022-12-23T20:52:36.708Z,12.40
2022-12-23T20:55:03.945Z,12.40
2022-12-23T20:57:31.828Z,12.40
2022-12-23T20:59:58.651Z,12.40
2022-12-23T21:02:26.856Z,12.50
2022-12-23T21:04:53.813Z,12.50
2022-12-23T21:07:20.863Z,12.50
2022-12-23T21:09:47.730Z,12.50
2022-12-23T21:12:14.885Z,12.50
2022-12-23T21:14:41.744Z,12.50
2022-12-23T21:17:08.787Z,12.50
2022-12-23T21:19:35.629Z,12.50
2022-12-23T21:22:03.217Z,12.50
2022-12-23T21:24:30.045Z,12.50
2022-12-23T21:26:57.367Z,12.50
2022-12-23T21:29:24.953Z,12.50
2022-12-23T21:31:52.037Z,12.50
2022-12-23T21:34:19.849Z,12.50
2022-12-23T21:36:46.877Z,12.50
2022-12-23T21:39:16.770Z,12.50
2022-12-23T21:41:43.799Z,12.50
2022-12-23T21:44:13.565Z,12.50
2022-12-23T21:46:40.952Z,12.50
2022-12-23T21:49:07.829Z,12.50
2022-12-23T21:51:40.165Z,12.50
2022-12-23T21:54:10.100Z,12.50
2022-12-23T21:56:37.571Z,12.50
2022-12-23T21:59:07.326Z,12.50
2022-12-23T22:01:34.841Z,12.50
2022-12-23T22:04:02.474Z,12.50
2022-12-23T22:06:33.000Z,12.50
2022-12-23T22:09:00.155Z,12.50
2022-12-23T22:11:30.105Z,12.50
2022-12-23T22:13:58.686Z,12.40
2022-12-23T22:16:28.583Z,12.50
2022-12-23T22:18:57.204Z,12.50
2022-12-23T22:21:25.934Z,12.50
2022-12-23T22:23:53.946Z,12.50
2022-12-23T22:26:27.063Z,12.50
2022-12-23T22:28:56.495Z,12.50
2022-12-23T22:31:29.284Z,12.50
2022-12-23T22:33:57.309Z,12.50
2022-12-23T22:36:24.406Z,12.60
2022-12-23T22:38:54.524Z,12.60
2022-12-23T22:41:22.034Z,12.60
2022-12-23T22:43:50.301Z,12.60
2022-12-23T22:46:18.424Z,12.60
2022-12-23T22:48:46.077Z,12.50
2022-12-23T22:51:18.714Z,12.60
2022-12-23T22:53:46.976Z,12.50
2022-12-23T22:56:15.638Z,12.50
2022-12-23T22:58:44.044Z,12.50
2022-12-23T23:01:24.474Z,12.50
2022-12-23T23:03:57.523Z,12.50
2022-12-23T23:06:27.300Z,12.50
2022-12-23T23:08:54.883Z,12.50
2022-12-23T23:11:22.725Z,12.40
2022-12-23T23:13:49.613Z,12.50
2022-12-23T23:16:16.666Z,12.50
2022-12-23T23:18:44.097Z,12.50
2022-12-23T23:21:16.325Z,12.50
2022-12-23T23:23:43.679Z,12.50
2022-12-23T23:26:11.237Z,12.50
2022-12-23T23:28:39.536Z,12.40
2022-12-23T23:31:40.614Z,12.40
2022-12-23T23:33:54.327Z,12.40
2022-12-23T23:36:21.334Z,12.40
2022-12-23T23:38:48.358Z,12.40
2022-12-23T23:41:22.231Z,12.40
2022-12-23T23:43:50.232Z,12.40
2022-12-23T23:46:17.232Z,12.40
2022-12-23T23:48:44.209Z,12.40
2022-12-23T23:51:12.477Z,12.50
2022-12-23T23:53:40.521Z,12.40
2022-12-23T23:56:08.653Z,12.50
2022-12-23T23:58:37.021Z,12.50
